Time;durP1;ratioP1;P1;durP2;ratioP2;P2;SDS_P1;SDS_P2;PMS_P1;PMS_P2;Temp;Humidity;BMP_temperature;BMP_pressure;BME280_temperature;BME280_humidity;BME280_pressure;Samples;Min_cycle;Max_cycle;Signal;HPM_P1;HPM_P2
2023/04/12 00:01:29;;;;;;;13.80;6.00;;;;;;;8.80;95.27;100020.56;5012271;28;20272;-78
2023/04/12 00:03:55;;;;;;;13.75;4.60;;;;;;;8.80;95.45;100010.13;5017142;28;20050;-77
2023/04/12 00:06:31;;;;;;;9.55;5.15;;;;;;;8.91;95.45;100006.41;5018548;28;20462;-77
2023/04/12 00:08:58;;;;;;;10.77;4.28;;;;;;;8.97;94.13;100011.81;5018173;28;20490;-78
2023/04/12 00:11:24;;;;;;;14.18;3.90;;;;;;;9.01;93.08;99995.81;5017853;28;20049;-77
2023/04/12 00:13:51;;;;;;;13.82;4.15;;;;;;;9.04;92.37;99995.47;5018299;28;20072;-78
2023/04/12 00:16:18;;;;;;;13.88;3.97;;;;;;;9.09;92.01;99987.97;5019136;28;20058;-78
2023/04/12 00:18:46;;;;;;;11.60;3.70;;;;;;;9.06;92.33;99977.88;5014899;28;20108;-77
2023/04/12 00:21:16;;;;;;;9.77;4.22;;;;;;;8.99;92.62;99973.28;5024025;28;20056;-77
2023/04/12 00:23:43;;;;;;;8.75;3.90;;;;;;;9.00;92.71;99966.28;5021426;28;20076;-77
2023/04/12 00:26:10;;;;;;;5.40;3.50;;;;;;;9.01;92.56;99965.31;5019876;28;20050;-79
2023/04/12 00:28:37;;;;;;;7.57;3.50;;;;;;;9.00;93.05;99961.06;5019299;28;20077;-78
2023/04/12 00:31:03;;;;;;;10.43;4.03;;;;;;;8.98;92.64;99956.00;5018848;28;20082;-78
2023/04/12 00:33:30;;;;;;;7.03;3.90;;;;;;;8.95;93.20;99939.88;5019799;28;20124;-78
2023/04/12 00:35:58;;;;;;;8.23;4.20;;;;;;;8.96;93.52;99942.34;5018507;28;20108;-80
2023/04/12 00:38:25;;;;;;;9.95;3.72;;;;;;;8.95;93.59;99935.47;5019127;28;20108;-79
2023/04/12 00:40:52;;;;;;;9.85;3.70;;;;;;;8.98;94.10;99919.47;5017543;28;20054;-79
2023/04/12 00:43:18;;;;;;;14.35;3.90;;;;;;;8.87;94.46;99916.41;5017736;28;20494;-80
2023/04/12 00:45:46;;;;;;;9.93;3.50;;;;;;;8.75;94.72;99912.47;5008975;28;20133;-79
2023/04/12 00:48:13;;;;;;;12.52;4.20;;;;;;;8.78;95.21;99906.91;5018899;28;20078;-79
2023/04/12 00:50:43;;;;;;;11.77;3.90;;;;;;;8.72;95.19;99895.34;5017266;28;20140;-78
2023/04/12 00:53:13;;;;;;;9.48;3.90;;;;;;;8.75;95.02;99897.63;5017313;28;20046;-79
2023/04/12 00:55:41;;;;;;;9.45;3.70;;;;;;;8.77;95.11;99900.88;5017888;28;20073;-79
2023/04/12 00:58:07;;;;;;;11.05;3.67;;;;;;;8.76;94.61;99898.44;5017831;28;20050;-79
2023/04/12 01:00:34;;;;;;;6.72;3.45;;;;;;;8.80;93.94;99881.50;5017412;28;20050;-79
2023/04/12 01:03:04;;;;;;;9.00;3.90;;;;;;;8.78;94.06;99875.63;5017016;28;20489;-79
2023/04/12 01:05:35;;;;;;;10.98;3.47;;;;;;;8.68;93.96;99877.56;5017956;28;20056;-78
2023/04/12 01:08:13;;;;;;;11.10;3.20;;;;;;;8.65;94.03;99858.66;5017097;28;20399;-79
2023/04/12 01:10:49;;;;;;;9.55;3.40;;;;;;;8.68;93.32;99859.31;5017198;28;20061;-79
2023/04/12 01:13:28;;;;;;;11.27;3.50;;;;;;;8.67;93.06;99860.28;5017582;28;20097;-79
2023/04/12 01:16:04;;;;;;;7.97;3.70;;;;;;;8.58;93.57;99847.22;5010132;28;20136;-79
2023/04/12 01:18:39;;;;;;;6.30;3.40;;;;;;;8.56;93.89;99846.59;5017289;28;20053;-79
2023/04/12 01:21:10;;;;;;;8.52;3.28;;;;;;;8.53;94.17;99849.50;5017504;28;20080;-79
2023/04/12 01:23:58;;;;;;;8.60;3.58;;;;;;;8.48;94.41;99846.59;5016834;28;20118;-79
2023/04/12 01:26:34;;;;;;;11.23;4.90;;;;;;;8.48;94.43;99846.59;5015870;28;20578;-79
2023/04/12 01:29:07;;;;;;;9.35;3.80;;;;;;;8.47;94.65;99831.13;5015797;28;20054;-79
2023/04/12 01:31:35;;;;;;;;;;;;;;;8.46;95.60;99827.69;5016276;28;20577;-78
2023/04/12 01:34:03;;;;;;;9.88;4.22;;;;;;;8.39;96.03;99823.28;5016901;28;19921;-79
2023/04/12 01:36:31;;;;;;;8.05;3.50;;;;;;;8.34;95.72;99815.13;5016837;28;20065;-78
2023/04/12 01:38:58;;;;;;;7.43;3.38;;;;;;;8.34;96.06;99807.31;5022030;28;20085;-78
2023/04/12 01:41:25;;;;;;;5.07;3.15;;;;;;;8.34;96.35;99804.72;5017072;28;20046;-78
2023/04/12 01:43:51;;;;;;;7.53;3.15;;;;;;;8.36;96.43;99789.72;5017989;28;20766;-78
2023/04/12 01:46:23;;;;;;;7.25;3.38;;;;;;;8.26;96.64;99788.03;5016926;28;20060;-78
2023/04/12 02:09:04;;;;;;;6.45;3.00;;;;;;;8.01;99.25;99736.91;5017091;28;20045;-78
2023/04/12 02:11:31;;;;;;;7.35;3.08;;;;;;;7.99;99.52;99731.03;5017925;28;20100;-79
2023/04/12 02:13:58;;;;;;;7.93;2.90;;;;;;;7.96;99.86;99728.75;5008625;28;20600;-78
2023/04/12 02:16:28;;;;;;;6.88;3.63;;;;;;;7.95;100.00;99716.69;5016649;28;20101;-78
2023/04/12 02:18:56;;;;;;;8.45;3.35;;;;;;;7.96;100.00;99710.50;5008515;28;20054;-77
2023/04/12 02:21:22;;;;;;;5.22;3.55;;;;;;;7.92;100.00;99711.81;5023057;28;20077;-77
2023/04/12 02:23:49;;;;;;;5.90;3.00;;;;;;;7.82;100.00;99711.13;5027747;28;20077;-77
2023/04/12 02:26:18;;;;;;;6.70;3.55;;;;;;;7.85;100.00;99700.41;5034606;28;20109;-77
2023/04/12 02:28:44;;;;;;;8.63;3.53;;;;;;;7.91;100.00;99697.16;5016730;28;20078;-78
2023/04/12 02:31:11;;;;;;;10.45;4.55;;;;;;;7.83;100.00;99687.53;5027922;28;20037;-77
2023/04/12 02:33:39;;;;;;;8.73;3.47;;;;;;;7.78;100.00;99679.38;5023803;28;20054;-78
2023/04/12 02:36:10;;;;;;;9.00;4.38;;;;;;;7.75;100.00;99673.69;5031180;28;20053;-78
2023/04/12 03:02:11;;;;;;;6.78;3.63;;;;;;;7.56;100.00;99618.31;5008810;28;20049;-78
2023/04/12 03:04:38;;;;;;;6.97;3.67;;;;;;;7.57;100.00;99613.94;5018669;28;20133;-78
2023/04/12 03:07:05;;;;;;;6.13;3.53;;;;;;;7.55;100.00;99608.91;5019282;28;20506;-79
2023/04/12 03:09:32;;;;;;;6.93;3.70;;;;;;;7.55;100.00;99605.50;5010310;28;20057;-79
2023/04/12 03:11:58;;;;;;;6.90;3.47;;;;;;;7.54;100.00;99586.47;5013254;28;20132;-79
2023/04/12 03:14:25;;;;;;;5.25;3.58;;;;;;;7.54;100.00;99583.88;5011384;28;20085;-78
2023/04/12 03:16:52;;;;;;;7.05;3.53;;;;;;;7.55;100.00;99574.25;5012500;28;20129;-79
2023/04/12 03:19:20;;;;;;;6.05;3.22;;;;;;;7.58;100.00;99566.09;5003228;28;20054;-80
2023/04/12 03:21:46;;;;;;;6.85;3.42;;;;;;;7.57;100.00;99554.88;5007729;28;20092;-79
2023/04/12 03:24:13;;;;;;;4.60;3.40;;;;;;;7.57;100.00;99551.44;5007644;28;20133;-78
2023/04/12 03:26:41;;;;;;;5.97;3.58;;;;;;;7.59;100.00;99552.91;5010431;28;20053;-78
2023/04/12 03:29:07;;;;;;;11.63;3.33;;;;;;;7.53;100.00;99530.16;5020642;28;20129;-79
2023/04/12 03:31:34;;;;;;;8.57;3.42;;;;;;;7.54;100.00;99526.59;5002578;28;20430;-79
2023/04/12 03:34:01;;;;;;;9.80;3.25;;;;;;;7.57;100.00;99530.63;5010289;28;20080;-79
2023/04/12 03:36:32;;;;;;;5.63;3.35;;;;;;;7.53;100.00;99519.75;5019271;28;20085;-79
2023/04/12 03:38:58;;;;;;;7.88;3.20;;;;;;;7.49;100.00;99508.03;5013260;28;20054;-80
2023/04/12 03:41:25;;;;;;;6.97;3.75;;;;;;;7.45;100.00;99505.94;5007543;28;20129;-80
2023/04/12 03:43:52;;;;;;;6.47;3.95;;;;;;;7.40;100.00;99498.59;5004165;28;20053;-79
2023/04/12 03:46:18;;;;;;;8.60;4.32;;;;;;;7.40;100.00;99506.41;5011823;28;20135;-79
2023/04/12 03:48:45;;;;;;;8.05;4.20;;;;;;;7.37;100.00;99506.75;5019347;28;20125;-79
2023/04/12 03:51:12;;;;;;;10.82;4.75;;;;;;;7.39;100.00;99496.16;5010216;28;20133;-80
2023/04/12 03:53:40;;;;;;;7.80;4.53;;;;;;;7.40;100.00;99489.97;5016456;28;20049;-79
2023/04/12 03:56:08;;;;;;;10.43;4.70;;;;;;;7.37;100.00;99491.13;5006116;28;20046;-79
2023/04/12 03:58:35;;;;;;;12.48;4.70;;;;;;;7.36;100.00;99479.09;5019890;28;20125;-80
2023/04/12 04:01:04;;;;;;;11.05;5.03;;;;;;;7.39;100.00;99480.56;5010720;28;20509;-80
2023/04/12 04:03:33;;;;;;;9.90;5.15;;;;;;;7.38;100.00;99469.31;5012477;28;20050;-79
2023/04/12 04:06:00;;;;;;;10.48;4.90;;;;;;;7.38;100.00;99458.91;5012722;28;20137;-80
2023/04/12 04:08:27;;;;;;;11.63;5.03;;;;;;;7.40;100.00;99456.97;5010994;28;20114;-79
2023/04/12 04:10:56;;;;;;;10.15;4.63;;;;;;;7.39;100.00;99455.34;5012501;28;20060;-79
2023/04/12 04:13:22;;;;;;;10.40;4.60;;;;;;;7.43;100.00;99454.03;5012234;28;20475;-78
2023/04/12 04:15:55;;;;;;;9.90;4.82;;;;;;;7.38;100.00;99451.09;5010635;28;20311;-79
2023/04/12 04:18:22;;;;;;;11.10;5.82;;;;;;;7.40;100.00;99446.56;5012489;28;20061;-79
2023/04/12 04:20:48;;;;;;;12.52;5.20;;;;;;;7.36;100.00;99440.06;5011717;28;20081;-79
2023/04/12 04:23:16;;;;;;;11.68;4.95;;;;;;;7.35;100.00;99433.22;5013104;28;20133;-80
2023/04/12 04:25:43;;;;;;;11.63;5.25;;;;;;;7.35;100.00;99422.81;5009180;28;20136;-79
2023/04/12 04:28:11;;;;;;;9.05;5.18;;;;;;;7.35;100.00;99430.63;5015901;28;20093;-79
2023/04/12 04:30:38;;;;;;;12.07;5.47;;;;;;;7.39;100.00;99420.69;5011549;28;20132;-79
2023/04/12 04:33:06;;;;;;;8.75;5.50;;;;;;;7.40;100.00;99425.72;5013579;28;20471;-79
2023/04/12 04:35:32;;;;;;;14.95;5.05;;;;;;;7.42;100.00;99421.19;5018220;28;20053;-79
2023/04/12 04:38:00;;;;;;;10.77;5.40;;;;;;;7.41;100.00;99403.94;5021127;28;20216;-79
2023/04/12 04:40:27;;;;;;;11.35;5.10;;;;;;;7.39;100.00;99403.28;5021444;28;20077;-79
2023/04/12 04:42:54;;;;;;;8.00;5.03;;;;;;;7.41;100.00;99414.34;5020365;28;20050;-80
2023/04/12 04:45:25;;;;;;;9.95;5.18;;;;;;;7.43;100.00;99406.38;5019711;28;20498;-80
2023/04/12 04:47:53;;;;;;;8.38;4.88;;;;;;;7.43;100.00;99401.97;5005515;28;20058;-79
2023/04/12 04:50:21;;;;;;;11.45;5.00;;;;;;;7.41;100.00;99398.72;5017619;28;20053;-79
2023/04/12 04:52:48;;;;;;;9.10;5.47;;;;;;;7.41;100.00;99400.53;5028936;28;20077;-79
2023/04/12 04:55:16;;;;;;;10.45;5.57;;;;;;;7.39;100.00;99397.28;5014085;28;20056;-79
2023/04/12 04:57:43;;;;;;;7.00;5.07;;;;;;;7.38;100.00;99386.06;5010989;28;20046;-79
2023/04/12 05:00:12;;;;;;;11.00;5.38;;;;;;;7.41;100.00;99390.94;5010338;28;20096;-79
2023/04/12 05:02:42;;;;;;;11.55;5.57;;;;;;;7.44;100.00;99384.56;5018635;28;20050;-79
2023/04/12 05:05:11;;;;;;;7.70;5.63;;;;;;;7.44;100.00;99379.38;5019043;28;20060;-79
2023/04/12 05:07:37;;;;;;;11.10;5.18;;;;;;;7.39;100.00;99377.25;5018579;28;20050;-79
2023/04/12 05:10:05;;;;;;;10.50;5.45;;;;;;;7.39;100.00;99368.66;5017909;28;20088;-80
2023/04/12 05:12:31;;;;;;;8.35;5.05;;;;;;;7.43;100.00;99370.75;5018580;28;20274;-79
2023/04/12 05:14:58;;;;;;;9.45;5.40;;;;;;;7.48;100.00;99365.88;5019042;28;20056;-79
2023/04/12 05:17:25;;;;;;;8.77;5.45;;;;;;;7.42;100.00;99371.72;5019169;28;20080;-79
2023/04/12 05:19:53;;;;;;;8.50;5.45;;;;;;;7.39;100.00;99368.66;5012938;28;20081;-79
2023/04/12 05:22:20;;;;;;;10.73;5.72;;;;;;;7.40;100.00;99365.88;5020112;28;20092;-79
2023/04/12 05:24:49;;;;;;;10.05;5.60;;;;;;;7.41;100.00;99362.28;5021199;28;20149;-79
2023/04/12 05:27:16;;;;;;;11.27;6.00;;;;;;;7.38;100.00;99365.22;5021237;28;20050;-80
2023/04/12 05:29:43;;;;;;;11.13;6.28;;;;;;;7.42;100.00;99361.31;5020859;28;20056;-80
2023/04/12 05:32:09;;;;;;;10.57;5.60;;;;;;;7.41;100.00;99358.88;5020343;28;20084;-80
2023/04/12 05:34:36;;;;;;;15.05;6.00;;;;;;;7.36;100.00;99348.97;5021212;28;20061;-79
2023/04/12 05:37:04;;;;;;;10.90;6.20;;;;;;;7.40;100.00;99347.66;5022901;28;20050;-80
2023/04/12 05:39:31;;;;;;;12.15;6.07;;;;;;;7.36;100.00;99337.75;5023421;28;20061;-79
2023/04/12 05:41:57;;;;;;;10.43;6.57;;;;;;;7.38;100.00;99344.41;5022668;28;20061;-79
2023/04/12 05:44:24;;;;;;;12.90;6.93;;;;;;;7.37;100.00;99348.00;5020694;28;20073;-80
2023/04/12 05:46:51;;;;;;;10.38;6.10;;;;;;;7.42;100.00;99345.69;5015648;28;20118;-80
2023/04/12 05:49:17;;;;;;;10.65;6.25;;;;;;;7.41;100.00;99341.47;5022399;28;20152;-78
2023/04/12 05:51:45;;;;;;;11.60;6.90;;;;;;;7.43;100.00;99342.13;5021274;28;20109;-80
2023/04/12 05:54:19;;;;;;;10.15;6.30;;;;;;;7.43;100.00;99338.72;5022143;28;20049;-80
2023/04/12 05:56:46;;;;;;;9.60;6.90;;;;;;;7.41;100.00;99336.28;5022413;28;20538;-80
2023/04/12 05:59:13;;;;;;;12.50;7.13;;;;;;;7.42;100.00;99335.28;5019937;28;20077;-80
2023/04/12 06:01:43;;;;;;;11.70;6.57;;;;;;;7.44;100.00;99335.94;5018562;28;20050;-79
2023/04/12 06:04:10;;;;;;;10.57;6.93;;;;;;;7.45;100.00;99328.94;5019662;28;20046;-78
2023/04/12 06:06:36;;;;;;;10.63;6.50;;;;;;;7.46;100.00;99331.38;5023853;28;20477;-78
2023/04/12 06:09:04;;;;;;;10.07;6.70;;;;;;;7.50;100.00;99335.28;5026430;28;20046;-79
2023/04/12 06:11:33;;;;;;;11.98;6.78;;;;;;;7.47;100.00;99322.59;5025213;28;20050;-81
2023/04/12 06:13:59;;;;;;;13.60;7.10;;;;;;;7.52;100.00;99329.91;5020775;28;20057;-78
2023/04/12 06:16:26;;;;;;;9.35;7.13;;;;;;;7.49;100.00;99322.44;5010632;28;20294;-79
2023/04/12 06:18:53;;;;;;;13.57;6.95;;;;;;;7.56;100.00;99316.34;5021960;28;20089;-79
2023/04/12 06:21:20;;;;;;;11.40;7.15;;;;;;;7.54;100.00;99318.34;5022360;28;20125;-79
2023/04/12 06:23:47;;;;;;;10.82;7.18;;;;;;;7.60;100.00;99311.63;5020630;28;20060;-79
2023/04/12 06:26:13;;;;;;;10.70;7.10;;;;;;;7.59;100.00;99312.59;5016545;28;20077;-79
2023/04/12 06:28:41;;;;;;;11.68;7.13;;;;;;;7.60;100.00;99307.22;5007224;28;20088;-80
2023/04/12 06:31:08;;;;;;;9.43;6.30;;;;;;;7.69;100.00;99297.59;5016255;28;20100;-79
2023/04/12 06:33:35;;;;;;;9.13;6.40;;;;;;;7.66;100.00;99296.13;5016386;28;20096;-78
2023/04/12 06:36:02;;;;;;;10.73;6.80;;;;;;;7.65;100.00;99289.31;5011035;28;20499;-80
2023/04/12 06:38:31;;;;;;;10.98;6.60;;;;;;;7.71;100.00;99290.44;5007718;28;20078;-83
2023/04/12 06:40:58;;;;;;;10.30;6.32;;;;;;;7.72;100.00;99286.03;5017856;28;20057;-84
2023/04/12 06:43:26;;;;;;;9.48;6.30;;;;;;;7.78;100.00;99283.56;5018317;28;20062;-81
2023/04/12 06:45:55;;;;;;;11.43;5.97;;;;;;;7.78;100.00;99274.94;5010298;28;20070;-80
2023/04/12 06:48:22;;;;;;;10.88;6.53;;;;;;;7.79;100.00;99273.94;5016234;28;20057;-78
2023/04/12 06:50:49;;;;;;;9.10;6.22;;;;;;;7.81;100.00;99266.78;5016331;28;20064;-79
2023/04/12 06:53:15;;;;;;;8.60;6.38;;;;;;;7.82;100.00;99258.81;5018436;28;20525;-80
2023/04/12 06:55:42;;;;;;;11.20;6.80;;;;;;;7.90;100.00;99263.16;5006708;28;20066;-79
2023/04/12 06:58:09;;;;;;;9.68;6.43;;;;;;;7.94;100.00;99260.03;5012794;28;20523;-78
2023/04/12 07:00:36;;;;;;;10.73;5.80;;;;;;;7.97;100.00;99246.66;5008252;28;20050;-79
2023/04/12 07:03:04;;;;;;;9.20;6.38;;;;;;;7.98;100.00;99252.69;5010261;28;20050;-78
2023/04/12 07:05:31;;;;;;;9.65;5.95;;;;;;;8.14;100.00;99249.94;5005700;28;20081;-79
2023/04/12 07:07:57;;;;;;;9.68;6.10;;;;;;;8.13;100.00;99235.31;5008837;28;20129;-78
2023/04/12 07:10:24;;;;;;;8.45;5.60;;;;;;;8.08;100.00;99232.41;5006529;28;20054;-78
2023/04/12 07:12:50;;;;;;;8.07;5.25;;;;;;;8.08;100.00;99232.41;5007956;28;20553;-79
2023/04/12 07:15:17;;;;;;;9.82;5.90;;;;;;;8.22;100.00;99236.88;5018823;28;20073;-80
2023/04/12 07:17:44;;;;;;;7.38;5.35;;;;;;;8.17;100.00;99228.75;5019949;28;20135;-79
2023/04/12 07:20:12;;;;;;;10.63;5.63;;;;;;;8.15;100.00;99211.69;5018847;28;20121;-79
2023/04/12 07:22:39;;;;;;;9.15;5.72;;;;;;;8.13;100.00;99219.69;5016571;28;20421;-79
2023/04/12 07:25:08;;;;;;;8.68;5.35;;;;;;;8.13;100.00;99209.25;5013335;28;20077;-79
2023/04/12 07:27:35;;;;;;;8.85;5.43;;;;;;;8.26;100.00;99211.28;5011248;28;20064;-79
2023/04/12 07:30:02;;;;;;;9.02;5.80;;;;;;;8.13;100.00;99203.22;5017450;28;20049;-79
2023/04/12 07:32:29;;;;;;;9.80;5.65;;;;;;;8.14;100.00;99195.25;5018304;28;20054;-77
2023/04/12 07:34:55;;;;;;;7.75;5.30;;;;;;;8.26;100.00;99198.25;5017761;28;20078;-78
2023/04/12 07:37:23;;;;;;;8.25;5.95;;;;;;;8.38;100.00;99185.63;5001427;28;20134;-78
2023/04/12 07:39:50;;;;;;;7.45;5.45;;;;;;;8.34;100.00;99176.56;5008306;28;20050;-79
2023/04/12 07:42:17;;;;;;;8.02;5.05;;;;;;;8.51;100.00;99180.59;5008270;28;20434;-78
2023/04/12 07:44:43;;;;;;;8.38;5.30;;;;;;;8.61;100.00;99186.38;5008471;28;20165;-78
2023/04/12 07:47:10;;;;;;;7.80;5.10;;;;;;;8.61;100.00;99166.31;5012656;28;20105;-78
2023/04/12 07:49:37;;;;;;;10.30;4.90;;;;;;;8.62;100.00;99170.56;5016227;28;20134;-78
2023/04/12 07:52:04;;;;;;;6.57;5.35;;;;;;;8.79;100.00;99173.00;5011946;28;20129;-78
2023/04/12 07:54:31;;;;;;;7.57;5.07;;;;;;;8.68;100.00;99169.03;5007029;28;20054;-79
2023/04/12 07:56:59;;;;;;;7.07;4.80;;;;;;;8.69;100.00;99173.25;5016610;28;20113;-77
2023/04/12 07:59:26;;;;;;;6.13;4.80;;;;;;;8.72;100.00;99172.91;5017693;28;20049;-78
2023/04/12 08:01:52;;;;;;;5.68;4.57;;;;;;;8.84;100.00;99186.31;5011245;28;20136;-78
2023/04/12 08:04:19;;;;;;;7.47;4.60;;;;;;;8.84;100.00;99168.88;5019585;28;20057;-79
2023/04/12 08:06:45;;;;;;;6.53;4.60;;;;;;;8.87;100.00;99173.72;5020293;28;20045;-79
2023/04/12 08:09:12;;;;;;;7.05;4.65;;;;;;;8.91;100.00;99161.13;5020629;28;20045;-79
2023/04/12 08:11:40;;;;;;;5.63;4.28;;;;;;;8.97;100.00;99158.59;5019192;28;20132;-79
2023/04/12 08:14:07;;;;;;;6.60;4.63;;;;;;;9.03;100.00;99162.25;5019038;28;20109;-79
2023/04/12 08:16:33;;;;;;;5.53;4.35;;;;;;;9.23;100.00;99160.72;5018510;28;20125;-80
2023/04/12 08:19:00;;;;;;;6.97;4.57;;;;;;;9.40;100.00;99156.09;5009166;28;20129;-80
2023/04/12 08:21:28;;;;;;;5.90;4.32;;;;;;;9.46;100.00;99159.75;5008325;28;20054;-79
2023/04/12 08:23:55;;;;;;;7.05;4.50;;;;;;;9.36;100.00;99146.22;5018996;28;20073;-79
2023/04/12 08:26:22;;;;;;;5.70;4.00;;;;;;;9.48;100.00;99142.91;5020294;28;20061;-78
2023/04/12 08:28:50;;;;;;;5.95;4.60;;;;;;;9.61;100.00;99137.81;5012192;28;20136;-80
2023/04/12 08:31:17;;;;;;;7.15;4.43;;;;;;;9.87;100.00;99142.50;5019916;28;20085;-80
2023/04/12 08:33:43;;;;;;;8.70;5.57;;;;;;;9.90;100.00;99133.47;5019140;28;20085;-78
2023/04/12 08:36:10;;;;;;;6.60;4.72;;;;;;;9.58;100.00;99130.34;5020392;28;20080;-79
2023/04/12 08:38:37;;;;;;;6.85;4.22;;;;;;;9.42;100.00;99121.97;5012249;28;20050;-77
2023/04/12 08:41:04;;;;;;;7.53;4.28;;;;;;;9.42;100.00;99124.59;5009356;28;20399;-79
2023/04/12 08:43:33;;;;;;;5.68;4.35;;;;;;;9.39;100.00;99127.56;5018468;28;20447;-78
2023/04/12 08:46:01;;;;;;;6.20;4.50;;;;;;;9.54;100.00;99134.34;5012065;28;20092;-78
2023/04/12 08:48:28;;;;;;;5.75;4.47;;;;;;;9.51;100.00;99141.72;5018751;28;20465;-80
2023/04/12 08:50:56;;;;;;;6.60;4.53;;;;;;;9.44;100.00;99136.47;5018970;28;20477;-79
2023/04/12 08:53:23;;;;;;;5.70;4.60;;;;;;;9.40;100.00;99135.22;5017307;28;20061;-79
2023/04/12 08:55:49;;;;;;;7.47;5.10;;;;;;;9.52;100.00;99128.50;5017743;28;20153;-79
2023/04/12 08:58:16;;;;;;;6.38;4.88;;;;;;;9.52;100.00;99127.69;5017545;28;20088;-78
2023/04/12 09:00:44;;;;;;;7.80;4.80;;;;;;;9.48;100.00;99137.69;5017932;28;20073;-79
2023/04/12 09:03:12;;;;;;;5.55;4.60;;;;;;;9.70;100.00;99140.31;5017866;28;20042;-79
2023/04/12 09:05:42;;;;;;;7.50;4.65;;;;;;;9.59;100.00;99134.59;5018283;28;20122;-79
2023/04/12 09:08:08;;;;;;;7.32;4.72;;;;;;;9.57;100.00;99139.19;5017835;28;20073;-79
2023/04/12 09:10:37;;;;;;;5.57;4.60;;;;;;;9.60;100.00;99140.63;5010443;28;20141;-78
2023/04/12 09:13:04;;;;;;;7.32;4.82;;;;;;;9.72;100.00;99133.09;5013095;28;20054;-78
2023/04/12 09:15:31;;;;;;;6.68;4.82;;;;;;;9.81;100.00;99130.19;5007701;28;20572;-80
2023/04/12 09:18:06;;;;;;;6.90;4.70;;;;;;;10.24;100.00;99133.56;5010640;28;20128;-79
2023/04/12 09:20:34;;;;;;;7.47;4.55;;;;;;;10.04;100.00;99135.19;5007849;28;20054;-79
2023/04/12 09:23:01;;;;;;;7.57;4.45;;;;;;;9.91;100.00;99128.06;5011054;28;20473;-79
2023/04/12 09:25:39;;;;;;;6.05;4.50;;;;;;;10.08;100.00;99128.59;5016238;28;20050;-78
2023/04/12 09:28:18;;;;;;;5.15;4.20;;;;;;;10.11;100.00;99122.97;5001180;28;20470;-79
2023/04/12 09:30:50;;;;;;;5.97;4.43;;;;;;;9.98;100.00;99122.88;5011695;28;20061;-78
2023/04/12 09:33:17;;;;;;;5.32;4.50;;;;;;;10.28;100.00;99128.78;5010106;28;20061;-78
2023/04/12 09:35:45;;;;;;;6.45;4.70;;;;;;;10.45;100.00;99124.03;5006174;28;20053;-78
2023/04/12 09:38:12;;;;;;;6.63;4.90;;;;;;;10.52;100.00;99124.91;5008285;28;20121;-78
2023/04/12 09:40:39;;;;;;;9.05;5.20;;;;;;;10.51;100.00;99123.28;5013638;28;20117;-82
2023/04/12 09:43:06;;;;;;;7.07;5.07;;;;;;;10.63;100.00;99119.13;5014717;28;20129;-77
2023/04/12 09:45:36;;;;;;;7.35;4.80;;;;;;;10.78;100.00;99119.00;5006247;28;20161;-78
2023/04/12 09:48:03;;;;;;;8.65;4.85;;;;;;;10.90;100.00;99107.78;5014700;28;20115;-78
2023/04/12 09:50:32;;;;;;;5.78;4.70;;;;;;;11.39;100.00;99109.34;5017945;28;20080;-77
2023/04/12 09:53:01;;;;;;;6.28;4.55;;;;;;;11.36;100.00;99108.94;5017524;28;20058;-78
2023/04/12 09:55:29;;;;;;;7.32;5.10;;;;;;;10.87;100.00;99104.78;5023972;28;20080;-77
2023/04/12 09:57:56;;;;;;;6.45;4.72;;;;;;;10.90;100.00;99097.31;5023209;28;20050;-78
2023/04/12 10:00:25;;;;;;;6.00;4.80;;;;;;;10.92;100.00;99081.41;5024357;28;20081;-79
2023/04/12 10:02:54;;;;;;;6.78;4.35;;;;;;;11.08;100.00;99083.69;5024241;28;20247;-77
2023/04/12 10:05:24;;;;;;;6.40;5.07;;;;;;;11.56;100.00;99080.97;5016005;28;20069;-78
2023/04/12 10:07:52;;;;;;;7.03;4.88;;;;;;;11.24;100.00;99072.06;5015407;28;20046;-78
2023/04/12 10:10:20;;;;;;;6.35;4.88;;;;;;;11.06;100.00;99066.56;5024231;28;20076;-79
2023/04/12 10:12:49;;;;;;;8.07;5.05;;;;;;;11.24;100.00;99061.59;5024168;28;20046;-78
2023/04/12 10:15:17;;;;;;;8.05;5.18;;;;;;;11.38;100.00;99057.16;5024999;28;20085;-78
2023/04/12 10:17:45;;;;;;;6.88;4.90;;;;;;;11.25;100.00;99064.00;5024682;28;20054;-79
2023/04/12 10:20:12;;;;;;;6.38;4.93;;;;;;;11.22;100.00;99056.56;5018551;28;20057;-79
2023/04/12 10:22:40;;;;;;;9.27;5.07;;;;;;;11.51;100.00;99060.63;5015699;28;20054;-79
2023/04/12 10:25:11;;;;;;;13.02;5.95;;;;;;;11.66;100.00;99062.25;5024314;28;20064;-80
2023/04/12 10:27:42;;;;;;;6.75;5.38;;;;;;;11.20;100.00;99068.22;5024428;28;20105;-79
2023/04/12 10:30:23;;;;;;;29.13;7.78;;;;;;;11.18;100.00;99067.63;5019405;28;20050;-79
2023/04/12 10:33:11;;;;;;;91.95;14.40;;;;;;;11.30;100.00;99059.00;5015301;28;20085;-78
2023/04/12 10:35:56;;;;;;;4.03;3.50;;;;;;;10.69;100.00;99075.69;5023884;28;20046;-78
2023/04/12 10:38:26;;;;;;;3.33;2.83;;;;;;;10.52;100.00;99072.59;5021815;28;20121;-78
2023/04/12 10:41:12;;;;;;;12.15;3.83;;;;;;;10.45;100.00;99074.34;5022198;28;20046;-77
2023/04/12 10:43:40;;;;;;;12.60;2.97;;;;;;;10.56;100.00;99084.28;5015147;28;20080;-78
2023/04/12 10:46:07;;;;;;;2.50;1.98;;;;;;;10.55;100.00;99093.13;5019145;28;20121;-78
2023/04/12 10:48:35;;;;;;;4.50;2.42;;;;;;;10.62;100.00;99099.19;5022441;28;20109;-78
2023/04/12 10:51:16;;;;;;;3.42;2.75;;;;;;;10.78;100.00;99113.78;5028849;28;20520;-80
2023/04/12 10:53:43;;;;;;;3.47;2.65;;;;;;;10.66;100.00;99116.13;5012376;28;20061;-78
2023/04/12 10:56:40;;;;;;;5.18;3.45;;;;;;;10.73;100.00;99109.13;5019370;28;20585;-79
2023/04/12 10:59:08;;;;;;;5.18;3.80;;;;;;;10.67;100.00;99122.97;4996850;28;20129;-81
2023/04/12 11:01:36;;;;;;;8.18;4.03;;;;;;;10.89;100.00;99128.91;5020373;28;20485;-79
2023/04/12 11:04:24;;;;;;;7.68;4.75;;;;;;;10.87;100.00;99123.09;5019911;28;20564;-79
2023/04/12 11:07:01;;;;;;;6.15;5.13;;;;;;;10.91;100.00;99109.41;5020498;28;20112;-78
2023/04/12 11:09:30;;;;;;;8.73;5.00;;;;;;;10.97;99.52;99124.31;5029031;28;20046;-81
2023/04/12 11:11:58;;;;;;;8.82;4.97;;;;;;;11.16;98.82;99130.66;5030867;28;20070;-77
2023/04/12 11:14:34;;;;;;;9.43;5.13;;;;;;;11.63;97.72;99124.50;5029088;28;20057;-79
2023/04/12 11:17:21;;;;;;;7.50;4.90;;;;;;;12.08;97.13;99122.16;5025093;28;20054;-78
2023/04/12 11:19:54;;;;;;;8.82;5.10;;;;;;;12.15;94.98;99107.22;5018066;28;20046;-81
2023/04/12 11:22:23;;;;;;;9.48;4.57;;;;;;;12.19;92.37;99100.56;5014846;28;20052;-81
2023/04/12 11:24:51;;;;;;;9.63;5.07;;;;;;;12.02;91.55;99112.47;5011896;28;20049;-80
2023/04/12 11:27:20;;;;;;;7.50;4.82;;;;;;;12.41;90.65;99116.88;5021427;28;20073;-81
2023/04/12 11:29:51;;;;;;;8.77;4.90;;;;;;;12.34;89.38;99110.00;5020158;28;20046;-80
2023/04/12 11:32:18;;;;;;;8.02;5.18;;;;;;;12.34;89.43;99110.81;5024374;28;20060;-81
2023/04/12 11:34:47;;;;;;;7.55;4.97;;;;;;;12.58;90.00;99117.25;5026295;28;20077;-81
2023/04/12 11:37:14;;;;;;;11.13;5.25;;;;;;;12.44;89.49;99120.91;5012639;28;20050;-79
2023/04/12 11:39:42;;;;;;;7.13;4.22;;;;;;;12.45;88.26;99117.25;5023271;28;20092;-82
2023/04/12 11:42:14;;;;;;;8.27;4.07;;;;;;;12.45;88.05;99122.50;5016775;28;20077;-82
2023/04/12 11:44:41;;;;;;;11.13;3.72;;;;;;;12.25;86.79;99102.38;5012950;28;20438;-81
2023/04/12 11:47:15;;;;;;;9.50;3.97;;;;;;;12.06;86.66;99097.94;5020326;28;20129;-81
2023/04/12 11:49:47;;;;;;;10.40;4.30;;;;;;;12.36;87.03;99102.75;5022132;28;20046;-81
2023/04/12 11:52:15;;;;;;;9.07;4.40;;;;;;;12.59;87.64;99087.38;5020706;28;20056;-80
2023/04/12 11:54:43;;;;;;;8.60;4.28;;;;;;;12.71;85.75;99077.03;5014252;28;20046;-80
2023/04/12 11:57:12;;;;;;;7.03;3.83;;;;;;;12.71;85.02;99096.22;5025590;28;20124;-79
2023/04/12 11:59:39;;;;;;;7.05;3.90;;;;;;;12.92;84.04;99085.41;5021129;28;20140;-77
2023/04/12 12:02:08;;;;;;;6.60;3.65;;;;;;;12.41;82.34;99089.81;5027706;28;20049;-80
2023/04/12 12:04:36;;;;;;;4.78;2.95;;;;;;;12.53;82.76;99096.88;5028611;28;20046;-80
2023/04/12 12:07:05;;;;;;;6.00;3.55;;;;;;;12.57;82.65;99092.81;5027139;28;20049;-80
2023/04/12 12:09:32;;;;;;;6.15;3.30;;;;;;;12.56;81.35;99087.78;5026629;28;20045;-82
2023/04/12 12:12:00;;;;;;;5.00;2.90;;;;;;;12.66;80.37;99080.28;5021614;28;20073;-81
2023/04/12 12:14:28;;;;;;;8.15;2.80;;;;;;;13.04;79.25;99080.31;5028985;28;20103;-81
2023/04/12 12:16:56;;;;;;;9.25;3.20;;;;;;;13.05;79.01;99078.50;5029516;28;20072;-81
2023/04/12 12:19:31;;;;;;;7.15;3.20;;;;;;;13.41;78.11;99076.09;5020670;28;20069;-82
2023/04/12 12:22:18;;;;;;;8.68;2.97;;;;;;;13.85;77.03;99077.78;5028303;28;20050;-81